createdAt,value
2023-05-13T00:00:30.901Z,15.90
2023-05-13T00:02:59.181Z,14.93
2023-05-13T00:05:27.515Z,11.57
2023-05-13T00:07:55.892Z,11.70
2023-05-13T00:10:25.646Z,9.40
2023-05-13T00:12:53.764Z,11.17
2023-05-13T00:15:21.852Z,8.77
2023-05-13T00:17:50.145Z,10.40
2023-05-13T00:20:18.357Z,9.50
2023-05-13T00:22:46.949Z,9.53
2023-05-13T00:25:15.513Z,9.53
2023-05-13T00:27:45.009Z,9.53
2023-05-13T00:30:13.448Z,8.47
2023-05-13T00:32:41.648Z,11.23
2023-05-13T00:35:10.629Z,11.27
2023-05-13T00:37:38.794Z,11.37
2023-05-13T00:40:11.712Z,9.53
2023-05-13T00:42:39.796Z,11.60
2023-05-13T00:45:10.489Z,9.90
2023-05-13T00:47:39.505Z,9.37
2023-05-13T00:50:09.365Z,18.87
2023-05-13T00:52:38.458Z,9.70
2023-05-13T00:55:07.729Z,10.30
2023-05-13T00:57:36.605Z,9.97
2023-05-13T01:00:06.730Z,10.63
2023-05-13T01:02:42.435Z,11.00
2023-05-13T01:05:18.983Z,13.80
2023-05-13T01:07:57.648Z,13.20
2023-05-13T01:10:35.307Z,11.50
2023-05-13T01:13:10.537Z,10.33
2023-05-13T01:15:44.004Z,11.00
2023-05-13T01:18:20.227Z,11.10
2023-05-13T01:20:48.394Z,13.70
2023-05-13T01:23:17.953Z,10.50
2023-05-13T01:25:46.658Z,10.97
2023-05-13T01:28:15.095Z,12.20
2023-05-13T01:30:43.276Z,10.93
2023-05-13T01:33:12.190Z,10.17
2023-05-13T01:35:40.540Z,11.37
2023-05-13T01:38:08.757Z,11.07
2023-05-13T01:40:39.608Z,10.97
2023-05-13T01:43:08.051Z,12.70
2023-05-13T01:45:36.171Z,12.63
2023-05-13T01:48:04.949Z,10.83
2023-05-13T01:50:33.732Z,10.60
2023-05-13T01:53:01.906Z,10.60
2023-05-13T01:55:30.115Z,12.30
2023-05-13T01:57:59.558Z,12.10
2023-05-13T02:00:27.792Z,10.50
2023-05-13T02:02:56.229Z,10.70
2023-05-13T02:05:24.583Z,9.37
2023-05-13T02:07:52.752Z,9.90
2023-05-13T02:10:21.061Z,12.30
2023-05-13T02:12:49.355Z,12.90
2023-05-13T02:15:18.963Z,9.50
2023-05-13T02:17:47.113Z,12.30
2023-05-13T02:20:15.870Z,13.13
2023-05-13T02:22:44.064Z,15.53
2023-05-13T02:25:12.330Z,13.83
2023-05-13T02:27:40.711Z,12.07
2023-05-13T02:30:09.773Z,11.63
2023-05-13T02:32:42.641Z,14.50
2023-05-13T02:35:11.276Z,15.77
2023-05-13T02:37:39.398Z,12.50
2023-05-13T02:40:08.774Z,13.37
2023-05-13T02:42:36.911Z,14.50
2023-05-13T02:45:05.672Z,16.00
2023-05-13T02:47:33.957Z,15.37
2023-05-13T02:50:06.054Z,16.37
2023-05-13T02:52:35.882Z,15.90
2023-05-13T02:55:12.492Z,19.00
2023-05-13T02:57:40.768Z,19.30
2023-05-13T03:00:11.047Z,17.03
2023-05-13T03:02:39.541Z,16.77
2023-05-13T03:05:08.732Z,15.57
2023-05-13T03:07:36.904Z,14.10
2023-05-13T03:10:05.966Z,22.07
2023-05-13T03:12:35.600Z,17.60
2023-05-13T03:15:04.353Z,16.40
2023-05-13T03:17:35.117Z,17.40
2023-05-13T03:20:03.630Z,18.77
2023-05-13T03:22:32.064Z,20.93
2023-05-13T03:25:00.329Z,16.87
2023-05-13T03:27:28.477Z,19.17
2023-05-13T03:29:57.970Z,17.03
2023-05-13T03:32:30.500Z,19.27
2023-05-13T03:35:00.766Z,24.63
2023-05-13T03:37:28.957Z,21.10
2023-05-13T03:39:57.063Z,17.73
2023-05-13T03:42:26.198Z,18.40
2023-05-13T03:44:54.276Z,16.20
2023-05-13T03:47:23.954Z,18.70
2023-05-13T03:49:52.091Z,23.27
2023-05-13T03:52:20.283Z,17.13
2023-05-13T03:54:48.386Z,19.30
2023-05-13T03:57:16.521Z,22.47
2023-05-13T03:59:44.614Z,18.87
2023-05-13T04:02:12.754Z,17.67
2023-05-13T04:04:42.339Z,17.97
2023-05-13T04:07:10.541Z,21.10
2023-05-13T04:09:38.712Z,20.80
2023-05-13T04:12:07.306Z,19.80
2023-05-13T04:14:35.505Z,22.30
2023-05-13T04:17:03.665Z,18.80
2023-05-13T04:19:31.794Z,20.73
2023-05-13T04:22:01.252Z,18.00
2023-05-13T04:24:29.632Z,19.83
2023-05-13T04:27:00.033Z,21.97
2023-05-13T04:29:29.466Z,19.50
2023-05-13T04:31:57.610Z,17.77
2023-05-13T04:34:25.768Z,21.47
2023-05-13T04:36:54.067Z,17.83
2023-05-13T04:39:23.568Z,18.97
2023-05-13T04:41:51.712Z,19.40
2023-05-13T04:44:20.096Z,23.47
2023-05-13T04:46:48.293Z,23.23
2023-05-13T04:49:16.487Z,26.77
2023-05-13T04:51:44.973Z,25.33
2023-05-13T04:54:13.428Z,20.63
2023-05-13T04:56:42.942Z,20.10
2023-05-13T04:59:11.080Z,22.30
2023-05-13T05:01:39.382Z,24.17
2023-05-13T05:04:07.581Z,24.40
2023-05-13T05:06:36.181Z,32.10
2023-05-13T05:09:04.726Z,23.00
2023-05-13T05:11:32.862Z,25.20
2023-05-13T05:14:02.426Z,22.30
2023-05-13T05:16:30.708Z,20.77
2023-05-13T05:18:59.281Z,20.57
2023-05-13T05:21:27.716Z,23.17
2023-05-13T05:23:55.947Z,20.50
2023-05-13T05:26:24.069Z,21.13
2023-05-13T05:28:52.210Z,22.20
2023-05-13T05:31:21.737Z,22.67
2023-05-13T05:33:49.996Z,19.70
2023-05-13T05:36:18.094Z,20.73
2023-05-13T05:38:47.315Z,20.73
2023-05-13T05:41:15.599Z,19.60
2023-05-13T05:43:43.710Z,19.57
2023-05-13T05:46:11.867Z,18.53
2023-05-13T05:48:41.497Z,22.40
2023-05-13T05:51:09.722Z,17.23
2023-05-13T05:53:40.886Z,22.37
2023-05-13T05:56:09.520Z,19.17
2023-05-13T05:58:37.656Z,18.70
2023-05-13T06:01:06.015Z,21.10
2023-05-13T06:03:34.315Z,18.00
2023-05-13T06:06:04.009Z,17.90
2023-05-13T06:08:32.361Z,16.43
2023-05-13T06:11:00.858Z,16.97
2023-05-13T06:13:29.153Z,16.63
2023-05-13T06:15:57.399Z,15.80
2023-05-13T06:18:26.660Z,22.70
2023-05-13T06:20:54.983Z,17.50
2023-05-13T06:23:24.489Z,19.50
2023-05-13T06:25:53.052Z,15.57
2023-05-13T06:28:21.267Z,14.17
2023-05-13T06:30:49.416Z,16.97
2023-05-13T06:33:17.638Z,20.77
2023-05-13T06:35:49.384Z,19.90
2023-05-13T06:38:18.221Z,20.27
2023-05-13T06:40:47.775Z,18.73
2023-05-13T06:43:16.380Z,15.17
2023-05-13T06:45:44.614Z,15.43
2023-05-13T06:48:14.213Z,14.40
2023-05-13T06:50:42.354Z,18.60
2023-05-13T06:53:12.611Z,12.70
2023-05-13T06:55:42.560Z,16.20
2023-05-13T06:58:12.208Z,11.80
2023-05-13T07:00:41.847Z,15.20
2023-05-13T07:03:10.122Z,10.33
2023-05-13T07:05:38.382Z,9.60
2023-05-13T07:08:08.656Z,8.93
2023-05-13T07:10:37.366Z,10.80
2023-05-13T07:13:06.307Z,12.77
2023-05-13T07:15:35.848Z,10.40
2023-05-13T07:18:04.090Z,9.70
2023-05-13T07:20:32.281Z,13.33
2023-05-13T07:23:00.534Z,10.97
2023-05-13T07:25:29.669Z,9.63
2023-05-13T07:27:57.848Z,9.53
2023-05-13T07:30:26.089Z,9.43
2023-05-13T07:32:55.699Z,7.03
2023-05-13T07:35:24.069Z,8.57
2023-05-13T07:37:52.430Z,10.47
2023-05-13T07:40:21.169Z,7.00
2023-05-13T07:42:50.356Z,9.13
2023-05-13T07:45:19.037Z,8.50
2023-05-13T07:47:47.433Z,9.30
2023-05-13T07:50:17.512Z,6.03
2023-05-13T07:52:48.960Z,9.07
2023-05-13T07:55:17.340Z,8.60
2023-05-13T07:57:45.698Z,5.03
2023-05-13T08:00:15.543Z,5.60
2023-05-13T08:02:44.534Z,9.13
2023-05-13T08:05:13.892Z,7.10
2023-05-13T08:07:43.938Z,6.60
2023-05-13T08:10:12.540Z,8.23
2023-05-13T08:12:41.026Z,6.93
2023-05-13T08:15:11.955Z,9.20
2023-05-13T08:17:40.225Z,6.13
2023-05-13T08:20:09.185Z,5.57
2023-05-13T08:22:37.386Z,9.70
2023-05-13T08:25:08.055Z,7.80
2023-05-13T08:27:36.367Z,8.53
2023-05-13T08:30:04.823Z,6.37
2023-05-13T08:32:33.435Z,5.33
2023-05-13T08:35:02.164Z,6.80
2023-05-13T08:37:30.299Z,6.43
2023-05-13T08:40:00.555Z,5.87
2023-05-13T08:42:33.354Z,7.20
2023-05-13T08:45:04.769Z,4.97
2023-05-13T08:47:40.565Z,6.80
2023-05-13T08:50:09.743Z,5.17
2023-05-13T08:52:37.946Z,5.00
2023-05-13T08:55:06.895Z,7.07
2023-05-13T08:57:37.335Z,4.10
2023-05-13T09:00:06.403Z,5.50
2023-05-13T09:02:34.846Z,7.03
2023-05-13T09:05:06.672Z,4.67
2023-05-13T09:07:35.496Z,6.60
2023-05-13T09:10:04.012Z,6.77
2023-05-13T09:12:50.628Z,6.17
2023-05-13T09:15:21.526Z,7.70
2023-05-13T09:17:52.499Z,5.40
2023-05-13T09:20:22.635Z,8.30
2023-05-13T09:22:53.124Z,6.30
2023-05-13T09:25:24.489Z,10.10
2023-05-13T09:27:57.781Z,5.00
2023-05-13T09:30:26.622Z,9.83
2023-05-13T09:33:10.384Z,8.57
2023-05-13T09:35:40.241Z,6.43
2023-05-13T09:38:14.442Z,6.70
2023-05-13T09:40:43.016Z,5.30
2023-05-13T09:43:12.567Z,5.00
2023-05-13T09:45:41.297Z,8.37
2023-05-13T09:48:11.292Z,7.80
2023-05-13T09:50:49.471Z,5.27
2023-05-13T09:53:19.053Z,9.47
2023-05-13T09:55:48.136Z,5.30
2023-05-13T09:58:19.025Z,6.33
2023-05-13T10:00:47.904Z,10.20
2023-05-13T10:03:16.549Z,7.23
2023-05-13T10:05:44.876Z,6.07
2023-05-13T10:08:15.106Z,5.47
2023-05-13T10:10:45.598Z,6.37
2023-05-13T10:13:19.577Z,7.07
2023-05-13T10:15:50.933Z,5.73
2023-05-13T10:18:20.575Z,12.07
2023-05-13T10:20:53.105Z,13.43
2023-05-13T10:23:22.596Z,8.10
2023-05-13T10:25:51.917Z,7.73
2023-05-13T10:28:22.219Z,6.20
2023-05-13T10:30:51.110Z,6.87
2023-05-13T10:33:19.762Z,6.27
2023-05-13T10:35:58.866Z,6.87
2023-05-13T10:38:43.410Z,7.63
2023-05-13T10:41:15.890Z,7.43
2023-05-13T10:43:45.550Z,9.80
2023-05-13T10:46:14.217Z,9.90
2023-05-13T10:48:43.839Z,9.70
2023-05-13T10:51:16.029Z,7.03
2023-05-13T10:53:49.342Z,7.73
2023-05-13T10:56:21.840Z,6.40
2023-05-13T10:59:00.441Z,6.03
2023-05-13T11:01:30.383Z,5.97
2023-05-13T11:04:00.926Z,6.83
2023-05-13T11:06:34.480Z,8.93
2023-05-13T11:09:05.622Z,7.10
2023-05-13T11:11:35.741Z,8.60
2023-05-13T11:14:09.779Z,7.73
2023-05-13T11:16:38.608Z,8.63
2023-05-13T11:19:19.448Z,5.83
2023-05-13T11:21:52.199Z,8.43
2023-05-13T11:24:22.426Z,5.57
2023-05-13T11:26:53.107Z,4.47
2023-05-13T11:29:37.319Z,6.53
2023-05-13T11:32:07.658Z,7.93
2023-05-13T11:34:36.395Z,4.40
2023-05-13T11:37:10.745Z,2.93
2023-05-13T11:39:41.883Z,3.60
2023-05-13T11:42:11.859Z,2.60
2023-05-13T11:44:48.217Z,2.93
2023-05-13T11:47:26.532Z,5.70
2023-05-13T11:49:55.903Z,7.00
2023-05-13T11:52:24.443Z,4.70
2023-05-13T11:54:54.612Z,4.53
2023-05-13T11:57:25.942Z,3.90
2023-05-13T11:59:58.588Z,4.73
2023-05-13T12:02:29.223Z,4.17
2023-05-13T12:05:01.232Z,3.80
2023-05-13T12:07:29.764Z,14.07
2023-05-13T12:10:00.053Z,7.07
2023-05-13T12:12:29.677Z,4.47
2023-05-13T12:15:01.095Z,5.00
2023-05-13T12:17:29.740Z,7.30
2023-05-13T12:20:08.517Z,5.00
2023-05-13T12:22:37.687Z,6.47
2023-05-13T12:25:41.284Z,6.00
2023-05-13T12:28:11.917Z,5.73
2023-05-13T12:30:44.212Z,3.67
2023-05-13T12:33:17.108Z,4.57
2023-05-13T12:35:46.046Z,3.20
2023-05-13T12:38:18.019Z,5.23
2023-05-13T12:40:46.918Z,3.87
2023-05-13T12:43:16.749Z,11.13
2023-05-13T12:45:47.978Z,4.00
2023-05-13T12:48:16.199Z,4.27
2023-05-13T12:50:44.367Z,4.10
2023-05-13T12:53:12.568Z,2.80
2023-05-13T12:55:40.825Z,2.00
2023-05-13T12:58:11.910Z,1.93
2023-05-13T13:00:40.435Z,4.37
2023-05-13T13:03:10.381Z,3.23
2023-05-13T13:05:38.806Z,3.90
2023-05-13T13:08:07.195Z,2.57
2023-05-13T13:10:35.405Z,4.37
2023-05-13T13:13:03.566Z,2.47
2023-05-13T13:15:31.813Z,2.30
2023-05-13T13:17:59.990Z,3.83
2023-05-13T13:20:29.610Z,3.23
2023-05-13T13:22:59.732Z,2.97
2023-05-13T13:25:29.006Z,2.47
2023-05-13T13:27:57.161Z,2.50
2023-05-13T13:30:25.352Z,2.17
2023-05-13T13:32:53.499Z,3.33
2023-05-13T13:35:22.034Z,3.47
2023-05-13T13:37:51.801Z,2.03
2023-05-13T13:40:20.240Z,2.50
2023-05-13T13:42:48.541Z,4.03
2023-05-13T13:45:16.854Z,2.40
2023-05-13T13:47:45.088Z,6.20
2023-05-13T13:50:13.329Z,4.80
2023-05-13T13:52:41.488Z,4.30
2023-05-13T13:55:12.386Z,2.87
2023-05-13T13:57:40.543Z,2.50
2023-05-13T14:00:09.947Z,4.27
2023-05-13T14:02:38.241Z,2.30
2023-05-13T14:05:07.773Z,2.97
2023-05-13T14:07:36.834Z,2.63
2023-05-13T14:10:05.582Z,2.77
2023-05-13T14:12:36.571Z,4.10
2023-05-13T14:15:05.478Z,5.63
2023-05-13T14:17:33.758Z,2.37
2023-05-13T14:20:01.978Z,5.57
2023-05-13T14:22:30.192Z,5.40
2023-05-13T14:25:00.176Z,3.60
2023-05-13T14:27:28.401Z,4.47
2023-05-13T14:29:58.035Z,2.47
2023-05-13T14:32:26.324Z,3.43
2023-05-13T14:34:54.507Z,6.33
2023-05-13T14:37:22.672Z,2.90
2023-05-13T14:39:51.005Z,3.17
2023-05-13T14:42:19.329Z,4.07
2023-05-13T14:44:47.455Z,2.53
2023-05-13T14:47:16.975Z,4.33
2023-05-13T14:49:45.355Z,3.53
2023-05-13T14:52:13.502Z,3.57
2023-05-13T14:54:41.641Z,3.63
2023-05-13T14:57:09.880Z,3.10
2023-05-13T14:59:38.221Z,2.67
2023-05-13T15:02:06.719Z,2.07
2023-05-13T15:04:36.293Z,2.10
2023-05-13T15:07:04.531Z,3.33
2023-05-13T15:09:32.760Z,2.70
2023-05-13T15:12:00.988Z,5.00
2023-05-13T15:14:29.166Z,2.43
2023-05-13T15:16:57.943Z,2.40
2023-05-13T15:19:26.096Z,3.87
2023-05-13T15:21:55.955Z,1.93
2023-05-13T15:24:24.188Z,3.53
2023-05-13T15:26:52.376Z,3.70
2023-05-13T15:29:20.494Z,2.10
2023-05-13T15:31:50.426Z,2.10
2023-05-13T15:34:18.554Z,2.57
2023-05-13T15:36:46.960Z,2.33
2023-05-13T15:39:17.046Z,2.33
2023-05-13T15:41:45.364Z,2.03
2023-05-13T15:44:13.485Z,2.30
2023-05-13T15:46:42.360Z,3.37
2023-05-13T15:49:10.621Z,2.77
2023-05-13T15:51:39.070Z,3.10
2023-05-13T15:54:07.520Z,3.13
2023-05-13T15:56:37.045Z,9.33
2023-05-13T15:59:05.292Z,3.00
2023-05-13T16:01:33.544Z,45.80
2023-05-13T16:04:02.555Z,72.50
2023-05-13T16:06:30.951Z,7.60
2023-05-13T16:09:01.740Z,4.23
2023-05-13T16:11:30.184Z,6.77
2023-05-13T16:13:59.861Z,4.23
2023-05-13T16:16:28.081Z,2.93
2023-05-13T16:18:56.883Z,3.50
2023-05-13T16:21:25.061Z,6.53
2023-05-13T16:23:53.229Z,2.53
2023-05-13T16:26:21.402Z,3.50
2023-05-13T16:28:49.527Z,3.63
2023-05-13T16:31:19.000Z,10.30
2023-05-13T16:33:47.123Z,4.63
2023-05-13T16:36:15.318Z,2.80
2023-05-13T16:38:43.493Z,3.23
2023-05-13T16:41:12.315Z,2.40
2023-05-13T16:43:40.856Z,3.20
2023-05-13T16:46:09.066Z,5.77
2023-05-13T16:48:39.796Z,2.60
2023-05-13T16:51:08.014Z,2.77
2023-05-13T16:53:36.132Z,4.03
2023-05-13T16:56:04.363Z,4.07
2023-05-13T16:58:32.468Z,4.50
2023-05-13T17:01:01.058Z,5.03
2023-05-13T17:03:29.346Z,5.00
2023-05-13T17:05:58.934Z,3.87
2023-05-13T17:08:27.066Z,4.13
2023-05-13T17:10:55.269Z,3.90
2023-05-13T17:13:23.611Z,8.27
2023-05-13T17:15:52.340Z,7.80
2023-05-13T17:18:20.485Z,3.70
2023-05-13T17:20:48.604Z,9.70
2023-05-13T17:23:18.072Z,4.60
2023-05-13T17:25:46.685Z,3.40
2023-05-13T17:28:14.810Z,3.00
2023-05-13T17:30:43.285Z,4.93
2023-05-13T17:33:11.545Z,4.53
2023-05-13T17:35:39.781Z,3.73
2023-05-13T17:38:08.009Z,8.40
2023-05-13T17:40:37.536Z,4.30
2023-05-13T17:43:05.719Z,5.13
2023-05-13T17:45:35.529Z,3.03
2023-05-13T17:48:04.067Z,3.63
2023-05-13T17:50:32.344Z,3.83
2023-05-13T17:53:01.159Z,11.43
2023-05-13T17:55:29.472Z,4.80
2023-05-13T17:57:59.799Z,5.60
2023-05-13T18:00:28.439Z,5.47
2023-05-13T18:02:56.761Z,4.03
2023-05-13T18:05:25.041Z,4.17
2023-05-13T18:07:53.345Z,5.10
2023-05-13T18:10:21.785Z,5.77
2023-05-13T18:12:51.802Z,5.00
2023-05-13T18:15:21.810Z,5.70
2023-05-13T18:17:51.019Z,5.63
2023-05-13T18:20:19.720Z,5.50
2023-05-13T18:22:47.941Z,6.33
2023-05-13T18:25:16.213Z,5.37
2023-05-13T18:27:44.416Z,5.60
2023-05-13T18:30:13.520Z,4.20
2023-05-13T18:32:43.069Z,4.47
2023-05-13T18:35:11.697Z,7.00
2023-05-13T18:37:39.891Z,4.60
2023-05-13T18:40:09.475Z,5.63
2023-05-13T18:42:37.650Z,2.87
2023-05-13T18:45:07.837Z,5.17
2023-05-13T18:47:36.197Z,7.80
2023-05-13T18:50:06.255Z,3.23
2023-05-13T18:52:34.415Z,4.60
2023-05-13T18:55:04.910Z,4.80
2023-05-13T18:57:33.313Z,3.63
2023-05-13T19:00:01.476Z,3.60
2023-05-13T19:02:29.828Z,4.67
2023-05-13T19:04:58.149Z,4.03
2023-05-13T19:07:28.136Z,4.97
2023-05-13T19:09:56.286Z,5.70
2023-05-13T19:12:24.384Z,4.77
2023-05-13T19:14:52.466Z,5.43
2023-05-13T19:17:20.782Z,4.70
2023-05-13T19:19:48.956Z,5.03
2023-05-13T19:22:17.071Z,3.37
2023-05-13T19:24:46.518Z,4.73
2023-05-13T19:27:14.776Z,4.07
2023-05-13T19:29:43.007Z,7.07
2023-05-13T19:32:11.118Z,5.40
2023-05-13T19:34:39.248Z,5.43
2023-05-13T19:37:07.432Z,6.17
2023-05-13T19:39:35.707Z,5.37
2023-05-13T19:42:05.546Z,4.93
2023-05-13T19:44:34.020Z,13.13
2023-05-13T19:47:02.663Z,17.23
2023-05-13T19:49:30.989Z,5.13
2023-05-13T19:51:59.235Z,6.87
2023-05-13T19:54:27.452Z,4.90
2023-05-13T19:56:56.234Z,8.40
2023-05-13T19:59:25.892Z,5.53
2023-05-13T20:01:54.162Z,5.10
2023-05-13T20:04:22.597Z,11.30
2023-05-13T20:06:50.757Z,8.90
2023-05-13T20:09:19.047Z,6.60
2023-05-13T20:11:47.357Z,7.17
2023-05-13T20:14:17.023Z,8.27
2023-05-13T20:16:46.550Z,4.60
2023-05-13T20:19:14.726Z,6.93
2023-05-13T20:21:42.883Z,5.67
2023-05-13T20:24:10.978Z,10.53
2023-05-13T20:26:39.139Z,6.47
2023-05-13T20:29:08.075Z,8.70
2023-05-13T20:31:36.231Z,7.77
2023-05-13T20:34:06.104Z,9.50
2023-05-13T20:36:34.285Z,7.20
2023-05-13T20:39:02.387Z,6.40
2023-05-13T20:41:30.589Z,12.00
2023-05-13T20:43:58.773Z,7.00
2023-05-13T20:46:27.230Z,7.77
2023-05-13T20:48:55.463Z,8.10
2023-05-13T20:51:24.955Z,7.87
2023-05-13T20:53:53.189Z,8.90
2023-05-13T20:56:21.571Z,6.27
2023-05-13T20:58:49.650Z,7.90
2023-05-13T21:01:17.833Z,7.30
2023-05-13T21:03:47.116Z,8.40
2023-05-13T21:06:16.395Z,7.73
2023-05-13T21:08:46.148Z,7.03
2023-05-13T21:11:14.267Z,9.50
2023-05-13T21:13:42.360Z,9.00
2023-05-13T21:16:10.562Z,7.10
2023-05-13T21:18:38.864Z,6.97
2023-05-13T21:21:08.647Z,8.70
2023-05-13T21:23:37.010Z,7.00
2023-05-13T21:26:07.466Z,7.97
2023-05-13T21:28:35.637Z,7.63
2023-05-13T21:31:03.854Z,8.03
2023-05-13T21:33:32.076Z,8.80
2023-05-13T21:36:00.392Z,9.80
2023-05-13T21:38:28.832Z,7.47
2023-05-13T21:40:56.952Z,6.57
2023-05-13T21:43:26.441Z,8.00
2023-05-13T21:45:54.533Z,11.20
2023-05-13T21:48:22.846Z,10.80
2023-05-13T21:50:51.089Z,8.00
2023-05-13T21:53:19.208Z,9.33
2023-05-13T21:55:47.340Z,9.47
2023-05-13T21:58:15.620Z,9.43
2023-05-13T22:00:45.127Z,11.67
2023-05-13T22:03:13.303Z,10.13
2023-05-13T22:05:44.102Z,8.30
2023-05-13T22:08:12.417Z,9.17
2023-05-13T22:10:40.927Z,10.07
2023-05-13T22:13:09.132Z,11.57
2023-05-13T22:15:37.259Z,10.17
2023-05-13T22:18:06.943Z,13.00
2023-05-13T22:20:35.166Z,9.53
2023-05-13T22:23:03.514Z,11.57
2023-05-13T22:25:31.623Z,10.60
2023-05-13T22:27:59.858Z,12.80
2023-05-13T22:30:28.112Z,10.40
2023-05-13T22:32:56.976Z,10.93
2023-05-13T22:35:28.699Z,9.30
2023-05-13T22:37:56.942Z,12.20
2023-05-13T22:40:25.358Z,12.53
2023-05-13T22:42:53.724Z,9.90
2023-05-13T22:45:21.827Z,9.30
2023-05-13T22:47:50.635Z,7.63
2023-05-13T22:50:19.101Z,8.50
2023-05-13T22:52:48.804Z,7.70
2023-05-13T22:55:16.920Z,11.80
2023-05-13T22:57:45.080Z,11.17
2023-05-13T23:00:14.221Z,12.70
2023-05-13T23:02:42.393Z,10.43
2023-05-13T23:05:10.584Z,10.40
2023-05-13T23:07:38.806Z,12.83
2023-05-13T23:10:09.223Z,8.97
2023-05-13T23:12:37.680Z,8.77
2023-05-13T23:15:06.966Z,9.20
2023-05-13T23:17:35.152Z,9.83
2023-05-13T23:20:03.427Z,10.47
2023-05-13T23:22:31.593Z,7.90
2023-05-13T23:24:59.717Z,9.23
2023-05-13T23:27:31.326Z,9.10
2023-05-13T23:29:59.708Z,10.60
2023-05-13T23:32:28.018Z,8.50
2023-05-13T23:34:56.262Z,10.00
2023-05-13T23:37:24.362Z,8.33
2023-05-13T23:39:52.518Z,9.67
2023-05-13T23:42:21.624Z,7.53
2023-05-13T23:44:51.139Z,13.20
2023-05-13T23:47:19.304Z,8.70
2023-05-13T23:49:47.414Z,10.70
2023-05-13T23:52:15.556Z,7.40
2023-05-13T23:54:43.735Z,10.23
2023-05-13T23:57:11.894Z,8.30
2023-05-13T23:59:40.002Z,11.97
